createdAt,value
2023-05-25T00:02:24.926Z,63.78
2023-05-25T00:04:53.838Z,63.74
2023-05-25T00:07:22.115Z,63.82
2023-05-25T00:09:50.586Z,63.74
2023-05-25T00:12:19.158Z,63.74
2023-05-25T00:14:47.899Z,63.66
2023-05-25T00:17:18.925Z,63.63
2023-05-25T00:19:48.205Z,63.53
2023-05-25T00:22:16.159Z,63.53
2023-05-25T00:24:44.485Z,63.60
2023-05-25T00:27:12.549Z,63.51
2023-05-25T00:29:40.544Z,63.52
2023-05-25T00:32:09.234Z,63.39
2023-05-25T00:34:38.198Z,63.43
2023-05-25T00:37:07.295Z,63.39
2023-05-25T00:39:35.522Z,63.35
2023-05-25T00:42:04.033Z,63.47
2023-05-25T00:44:32.223Z,63.60
2023-05-25T00:47:04.531Z,63.56
2023-05-25T00:49:35.417Z,63.44
2023-05-25T00:52:04.515Z,63.55
2023-05-25T00:54:34.013Z,63.51
2023-05-25T00:57:06.121Z,63.50
2023-05-25T00:59:42.035Z,63.28
2023-05-25T01:02:11.281Z,63.42
2023-05-25T01:04:45.659Z,63.48
2023-05-25T01:07:17.665Z,63.44
2023-05-25T01:09:46.144Z,63.44
2023-05-25T01:12:15.204Z,63.40
2023-05-25T01:14:44.353Z,63.41
2023-05-25T01:17:14.018Z,63.41
2023-05-25T01:19:51.895Z,63.45
2023-05-25T01:22:32.895Z,63.53
2023-05-25T01:25:24.802Z,63.55
2023-05-25T01:28:04.030Z,63.60
2023-05-25T01:30:33.720Z,63.59
2023-05-25T01:33:03.033Z,63.67
2023-05-25T01:35:31.541Z,63.52
2023-05-25T01:37:59.592Z,63.62
2023-05-25T01:40:31.998Z,63.63
2023-05-25T01:43:02.279Z,63.70
2023-05-25T01:45:33.242Z,63.66
2023-05-25T01:48:04.459Z,63.81
2023-05-25T01:50:46.832Z,63.78
2023-05-25T01:53:23.621Z,63.78
2023-05-25T01:56:11.931Z,63.71
2023-05-25T01:58:42.716Z,63.75
2023-05-25T02:01:14.671Z,63.98
2023-05-25T02:03:42.783Z,63.88
2023-05-25T02:06:12.337Z,63.96
2023-05-25T02:08:40.820Z,63.99
2023-05-25T02:11:08.908Z,63.99
2023-05-25T02:13:37.596Z,64.03
2023-05-25T02:16:06.507Z,64.07
2023-05-25T02:18:34.780Z,64.04
2023-05-25T02:21:03.254Z,64.11
2023-05-25T02:23:31.321Z,64.13
2023-05-25T02:25:59.988Z,64.13
2023-05-25T02:28:28.416Z,64.03
2023-05-25T02:30:56.936Z,64.07
2023-05-25T02:33:26.277Z,64.22
2023-05-25T02:35:54.306Z,64.15
2023-05-25T02:38:26.643Z,64.14
2023-05-25T02:40:55.906Z,64.25
2023-05-25T02:43:25.286Z,64.22
2023-05-25T02:45:54.491Z,64.19
2023-05-25T02:48:23.049Z,64.28
2023-05-25T02:50:51.399Z,64.27
2023-05-25T02:53:19.474Z,64.28
2023-05-25T02:55:47.417Z,64.33
2023-05-25T02:58:18.850Z,64.32
2023-05-25T03:01:10.638Z,64.29
2023-05-25T03:03:39.714Z,64.34
2023-05-25T03:06:08.619Z,64.34
2023-05-25T03:08:36.732Z,64.34
2023-05-25T03:11:04.773Z,64.40
2023-05-25T03:13:33.068Z,64.33
2023-05-25T03:16:01.543Z,64.41
2023-05-25T03:18:30.636Z,64.42
2023-05-25T03:20:59.044Z,64.45
2023-05-25T03:23:27.613Z,64.56
2023-05-25T03:25:58.279Z,64.56
2023-05-25T03:28:26.899Z,64.57
2023-05-25T03:30:54.887Z,64.47
2023-05-25T03:33:23.491Z,64.58
2023-05-25T03:35:53.214Z,64.61
2023-05-25T03:38:21.846Z,64.59
2023-05-25T03:40:50.615Z,64.64
2023-05-25T03:43:19.167Z,64.65
2023-05-25T03:45:48.384Z,64.64
2023-05-25T03:48:18.269Z,64.67
2023-05-25T03:50:49.270Z,64.78
2023-05-25T03:53:17.875Z,64.75
2023-05-25T03:55:46.931Z,64.75
2023-05-25T03:58:18.535Z,64.68
2023-05-25T04:00:51.874Z,64.82
2023-05-25T04:03:21.274Z,64.78
2023-05-25T04:05:50.180Z,64.79
2023-05-25T04:08:19.775Z,64.82
2023-05-25T04:10:48.283Z,64.84
2023-05-25T04:13:17.077Z,64.82
2023-05-25T04:15:45.795Z,64.85
2023-05-25T04:18:19.234Z,64.84
2023-05-25T04:20:48.644Z,64.89
2023-05-25T04:23:19.836Z,64.90
2023-05-25T04:25:50.587Z,64.90
2023-05-25T04:28:18.931Z,64.87
2023-05-25T04:30:57.408Z,64.96
2023-05-25T04:33:49.492Z,64.85
2023-05-25T04:36:32.853Z,64.96
2023-05-25T04:39:03.559Z,64.87
2023-05-25T04:41:34.199Z,64.85
2023-05-25T04:44:10.197Z,64.92
2023-05-25T04:47:01.757Z,64.81
2023-05-25T04:49:34.743Z,64.87
2023-05-25T04:52:03.015Z,64.89
2023-05-25T04:54:32.217Z,64.85
2023-05-25T04:57:03.394Z,64.84
2023-05-25T04:59:33.156Z,64.84
2023-05-25T05:02:02.168Z,64.77
2023-05-25T05:04:30.688Z,64.85
2023-05-25T05:07:00.508Z,64.93
2023-05-25T05:09:31.170Z,64.83
2023-05-25T05:12:01.923Z,64.85
2023-05-25T05:14:32.285Z,64.84
2023-05-25T05:17:00.816Z,64.85
2023-05-25T05:19:33.358Z,64.82
2023-05-25T05:22:01.814Z,64.86
2023-05-25T05:24:30.713Z,64.74
2023-05-25T05:27:02.083Z,64.71
2023-05-25T05:29:41.037Z,64.82
2023-05-25T05:32:09.256Z,64.88
2023-05-25T05:34:37.736Z,64.77
2023-05-25T05:37:10.421Z,64.77
2023-05-25T05:39:39.480Z,64.80
2023-05-25T05:42:08.319Z,64.71
2023-05-25T05:44:37.685Z,64.64
2023-05-25T05:47:06.533Z,64.74
2023-05-25T05:49:38.472Z,64.62
2023-05-25T05:52:09.061Z,64.53
2023-05-25T05:54:37.191Z,64.51
2023-05-25T05:57:09.822Z,64.51
2023-05-25T05:59:37.881Z,64.51
2023-05-25T06:02:07.510Z,64.43
2023-05-25T06:04:38.226Z,64.40
2023-05-25T06:07:06.437Z,64.35
2023-05-25T06:09:35.874Z,64.38
2023-05-25T06:12:06.252Z,64.31
2023-05-25T06:14:35.991Z,64.15
2023-05-25T06:17:07.937Z,64.14
2023-05-25T06:19:38.080Z,64.29
2023-05-25T06:22:07.880Z,64.24
2023-05-25T06:24:36.082Z,64.22
2023-05-25T06:27:05.225Z,63.92
2023-05-25T06:29:34.273Z,63.89
2023-05-25T06:32:02.268Z,63.97
2023-05-25T06:34:32.044Z,64.03
2023-05-25T06:37:02.084Z,63.98
2023-05-25T06:39:31.471Z,64.01
2023-05-25T06:42:00.327Z,63.92
2023-05-25T06:44:33.522Z,63.97
2023-05-25T06:47:04.862Z,64.07
2023-05-25T06:49:33.331Z,63.91
2023-05-25T06:52:01.928Z,63.89
2023-05-25T06:54:31.017Z,63.86
2023-05-25T06:57:01.537Z,63.89
2023-05-25T06:59:31.084Z,63.89
2023-05-25T07:02:01.424Z,63.97
2023-05-25T07:04:29.727Z,63.95
2023-05-25T07:06:58.829Z,63.94
2023-05-25T07:09:26.714Z,63.89
2023-05-25T07:11:55.786Z,64.02
2023-05-25T07:14:24.063Z,63.77
2023-05-25T07:16:52.260Z,64.02
2023-05-25T07:19:20.849Z,63.96
2023-05-25T07:21:50.228Z,63.87
2023-05-25T07:24:19.034Z,63.82
2023-05-25T07:26:49.570Z,63.80
2023-05-25T07:29:19.437Z,63.94
2023-05-25T07:31:48.194Z,63.79
2023-05-25T07:34:16.193Z,63.71
2023-05-25T07:36:44.305Z,63.65
2023-05-25T07:39:12.745Z,63.67
2023-05-25T07:41:41.502Z,63.69
2023-05-25T07:44:09.679Z,63.58
2023-05-25T07:46:37.976Z,63.63
2023-05-25T07:49:12.292Z,63.63
2023-05-25T07:51:43.858Z,63.57
2023-05-25T07:54:12.185Z,63.59
2023-05-25T07:56:41.140Z,63.65
2023-05-25T07:59:11.906Z,63.46
2023-05-25T08:01:40.867Z,63.56
2023-05-25T08:04:09.794Z,63.30
2023-05-25T08:06:38.636Z,63.42
2023-05-25T08:09:08.228Z,63.42
2023-05-25T08:11:38.034Z,63.33
2023-05-25T08:14:06.221Z,63.37
2023-05-25T08:16:35.383Z,63.36
2023-05-25T08:19:03.584Z,63.37
2023-05-25T08:21:35.533Z,63.20
2023-05-25T08:24:05.095Z,63.22
2023-05-25T08:26:52.298Z,63.11
2023-05-25T08:29:22.332Z,63.09
2023-05-25T08:31:50.758Z,63.14
2023-05-25T08:34:18.969Z,63.06
2023-05-25T08:36:47.341Z,62.95
2023-05-25T08:39:16.683Z,62.96
2023-05-25T08:41:45.323Z,62.91
2023-05-25T08:44:15.592Z,62.89
2023-05-25T08:46:47.265Z,62.81
2023-05-25T08:49:16.387Z,62.78
2023-05-25T08:51:55.127Z,62.70
2023-05-25T08:54:24.725Z,62.67
2023-05-25T08:56:56.318Z,62.59
2023-05-25T08:59:24.725Z,62.54
2023-05-25T09:01:55.507Z,62.53
2023-05-25T09:04:25.128Z,62.53
2023-05-25T09:07:08.830Z,62.43
2023-05-25T09:09:39.753Z,62.34
2023-05-25T09:12:08.809Z,62.30
2023-05-25T09:14:38.258Z,62.29
2023-05-25T09:17:07.990Z,62.28
2023-05-25T09:19:37.000Z,62.24
2023-05-25T09:22:15.140Z,62.16
2023-05-25T09:24:46.152Z,62.13
2023-05-25T09:27:19.109Z,62.03
2023-05-25T09:29:48.720Z,62.00
2023-05-25T09:32:17.667Z,62.00
2023-05-25T09:34:47.079Z,61.95
2023-05-25T09:37:19.759Z,61.93
2023-05-25T09:39:48.324Z,61.78
2023-05-25T09:42:16.562Z,61.74
2023-05-25T09:44:44.998Z,61.73
2023-05-25T09:47:19.567Z,61.64
2023-05-25T09:49:50.130Z,61.57
2023-05-25T09:52:18.217Z,61.61
2023-05-25T09:54:47.880Z,61.50
2023-05-25T09:57:16.996Z,61.43
2023-05-25T09:59:46.055Z,61.32
2023-05-25T10:02:14.707Z,61.25
2023-05-25T10:04:43.211Z,61.27
2023-05-25T10:07:11.418Z,61.16
2023-05-25T10:10:00.317Z,61.06
2023-05-25T10:12:28.619Z,61.04
2023-05-25T10:14:58.736Z,60.81
2023-05-25T10:17:28.667Z,60.85
2023-05-25T10:20:00.875Z,60.86
2023-05-25T10:22:47.111Z,60.94
2023-05-25T10:25:23.808Z,60.69
2023-05-25T10:27:57.507Z,60.73
2023-05-25T10:30:28.009Z,60.66
2023-05-25T10:32:59.156Z,60.62
2023-05-25T10:35:27.884Z,60.52
2023-05-25T10:37:57.124Z,60.51
2023-05-25T10:40:25.802Z,60.26
2023-05-25T10:42:55.920Z,60.33
2023-05-25T10:45:24.876Z,60.25
2023-05-25T10:47:53.245Z,60.27
2023-05-25T10:50:24.634Z,60.33
2023-05-25T10:53:12.359Z,60.31
2023-05-25T10:55:52.300Z,60.12
2023-05-25T10:58:21.836Z,60.19
2023-05-25T11:01:05.986Z,60.03
2023-05-25T11:03:52.807Z,59.96
2023-05-25T11:06:21.846Z,59.67
2023-05-25T11:08:56.246Z,59.92
2023-05-25T11:11:45.510Z,59.84
2023-05-25T11:14:26.221Z,59.81
2023-05-25T11:17:15.624Z,59.63
2023-05-25T11:19:53.415Z,59.80
2023-05-25T11:22:22.844Z,59.49
2023-05-25T11:24:52.982Z,59.53
2023-05-25T11:27:24.748Z,59.31
2023-05-25T11:29:54.541Z,59.39
2023-05-25T11:32:23.161Z,59.26
2023-05-25T11:34:57.435Z,59.22
2023-05-25T11:37:29.120Z,59.32
2023-05-25T11:39:58.803Z,59.08
2023-05-25T11:42:28.553Z,59.24
2023-05-25T11:44:57.392Z,58.98
2023-05-25T11:47:28.121Z,59.03
2023-05-25T11:49:58.399Z,58.80
2023-05-25T11:52:28.093Z,58.91
2023-05-25T11:54:56.785Z,58.81
2023-05-25T11:57:25.731Z,58.75
2023-05-25T11:59:54.581Z,58.64
2023-05-25T12:02:24.831Z,58.68
2023-05-25T12:04:55.386Z,58.50
2023-05-25T12:07:27.263Z,58.46
2023-05-25T12:10:09.199Z,58.28
2023-05-25T12:12:48.063Z,58.28
2023-05-25T12:15:20.657Z,58.23
2023-05-25T12:17:51.189Z,58.03
2023-05-25T12:20:20.720Z,57.88
2023-05-25T12:22:49.126Z,57.81
2023-05-25T12:25:21.699Z,57.62
2023-05-25T12:28:09.685Z,57.39
2023-05-25T12:30:37.900Z,57.24
2023-05-25T12:33:06.465Z,57.26
2023-05-25T12:35:48.321Z,57.26
2023-05-25T12:38:18.083Z,57.14
2023-05-25T12:40:46.432Z,56.90
2023-05-25T12:43:15.699Z,56.95
2023-05-25T12:45:44.342Z,56.76
2023-05-25T12:48:12.783Z,56.75
2023-05-25T12:50:56.850Z,56.78
2023-05-25T12:53:27.330Z,56.56
2023-05-25T12:56:03.619Z,56.41
2023-05-25T12:58:31.854Z,56.48
2023-05-25T13:01:01.503Z,56.36
2023-05-25T13:03:29.512Z,56.15
2023-05-25T13:06:02.749Z,56.08
2023-05-25T13:08:31.182Z,56.07
2023-05-25T13:11:00.223Z,55.98
2023-05-25T13:13:29.464Z,55.76
2023-05-25T13:15:58.567Z,55.68
2023-05-25T13:18:27.569Z,55.41
2023-05-25T13:20:57.137Z,55.30
2023-05-25T13:23:25.726Z,55.26
2023-05-25T13:25:54.325Z,55.17
2023-05-25T13:28:23.076Z,54.94
2023-05-25T13:30:51.636Z,54.91
2023-05-25T13:33:19.687Z,54.82
2023-05-25T13:35:58.860Z,54.62
2023-05-25T13:38:27.921Z,54.48
2023-05-25T13:40:58.105Z,54.39
2023-05-25T13:43:27.668Z,54.40
2023-05-25T13:45:56.644Z,54.37
2023-05-25T13:48:25.158Z,54.23
2023-05-25T13:50:53.478Z,54.11
2023-05-25T13:53:22.822Z,53.98
2023-05-25T13:55:54.432Z,53.93
2023-05-25T13:58:25.252Z,53.90
2023-05-25T14:00:54.389Z,53.70
2023-05-25T14:03:22.723Z,53.73
2023-05-25T14:05:54.025Z,53.75
2023-05-25T14:08:22.295Z,53.67
2023-05-25T14:10:50.623Z,53.72
2023-05-25T14:13:18.642Z,53.49
2023-05-25T14:15:47.900Z,53.37
2023-05-25T14:18:16.422Z,53.23
2023-05-25T14:20:45.222Z,53.15
2023-05-25T14:23:18.420Z,52.93
2023-05-25T14:25:48.894Z,52.80
2023-05-25T14:28:16.841Z,52.73
2023-05-25T14:30:46.639Z,52.48
2023-05-25T14:33:17.494Z,52.40
2023-05-25T14:35:46.424Z,52.34
2023-05-25T14:38:14.818Z,52.30
2023-05-25T14:40:43.944Z,52.12
2023-05-25T14:43:12.430Z,52.04
2023-05-25T14:45:40.395Z,51.98
2023-05-25T14:48:16.426Z,51.97
2023-05-25T14:50:46.217Z,51.73
2023-05-25T14:53:14.124Z,51.71
2023-05-25T14:55:42.943Z,51.60
2023-05-25T14:58:11.711Z,51.50
2023-05-25T15:00:40.078Z,51.50
2023-05-25T15:03:08.263Z,51.45
2023-05-25T15:05:37.558Z,51.46
2023-05-25T15:08:05.762Z,51.33
2023-05-25T15:10:34.860Z,51.31
2023-05-25T15:13:04.449Z,51.19
2023-05-25T15:15:33.666Z,51.13
2023-05-25T15:18:02.428Z,51.22
2023-05-25T15:20:31.130Z,50.95
2023-05-25T15:23:00.660Z,51.07
2023-05-25T15:25:34.894Z,51.01
2023-05-25T15:28:04.295Z,51.01
2023-05-25T15:30:35.000Z,50.93
2023-05-25T15:33:03.217Z,50.89
2023-05-25T15:35:32.642Z,50.85
2023-05-25T15:38:02.235Z,50.86
2023-05-25T15:40:31.025Z,50.79
2023-05-25T15:42:59.571Z,50.73
2023-05-25T15:45:28.337Z,50.59
2023-05-25T15:47:56.574Z,50.57
2023-05-25T15:50:25.802Z,50.55
2023-05-25T15:52:54.302Z,50.61
2023-05-25T15:55:23.388Z,50.47
2023-05-25T15:57:51.328Z,50.44
2023-05-25T16:00:19.324Z,50.30
2023-05-25T16:02:47.425Z,50.36
2023-05-25T16:05:15.795Z,50.28
2023-05-25T16:07:44.484Z,50.29
2023-05-25T16:10:12.530Z,50.21
2023-05-25T16:12:41.158Z,50.10
2023-05-25T16:15:10.975Z,50.18
2023-05-25T16:17:38.946Z,50.11
2023-05-25T16:20:07.486Z,49.98
2023-05-25T16:22:36.122Z,49.99
2023-05-25T16:25:04.210Z,49.98
2023-05-25T16:27:32.240Z,49.78
2023-05-25T16:30:01.271Z,49.91
2023-05-25T16:32:29.697Z,49.92
2023-05-25T16:34:58.823Z,49.90
2023-05-25T16:37:27.798Z,49.91
2023-05-25T16:39:55.993Z,50.01
2023-05-25T16:42:25.216Z,50.04
2023-05-25T16:44:53.283Z,50.06
2023-05-25T16:47:22.299Z,50.04
2023-05-25T16:49:50.551Z,50.12
2023-05-25T16:52:18.665Z,50.03
2023-05-25T16:54:46.764Z,50.19
2023-05-25T16:57:15.617Z,50.14
2023-05-25T16:59:43.789Z,50.02
2023-05-25T17:02:11.814Z,49.88
2023-05-25T17:04:39.936Z,49.96
2023-05-25T17:07:09.028Z,49.89
2023-05-25T17:09:38.948Z,50.01
2023-05-25T17:12:07.863Z,50.00
2023-05-25T17:14:35.979Z,49.80
2023-05-25T17:17:06.215Z,49.99
2023-05-25T17:19:34.946Z,50.06
2023-05-25T17:22:03.843Z,50.00
2023-05-25T17:24:31.899Z,49.80
2023-05-25T17:27:03.035Z,49.84
2023-05-25T17:29:32.252Z,49.78
2023-05-25T17:32:00.575Z,49.88
2023-05-25T17:34:29.388Z,50.00
2023-05-25T17:36:57.323Z,49.96
2023-05-25T17:39:25.294Z,50.03
2023-05-25T17:41:54.664Z,49.87
2023-05-25T17:44:23.307Z,49.90
2023-05-25T17:46:51.142Z,50.10
2023-05-25T17:49:20.076Z,50.32
2023-05-25T17:51:49.817Z,50.53
2023-05-25T17:54:20.305Z,50.58
2023-05-25T17:56:49.622Z,50.51
2023-05-25T17:59:18.380Z,50.78
2023-05-25T18:01:47.116Z,50.74
2023-05-25T18:04:16.337Z,50.77
2023-05-25T18:06:44.588Z,50.88
2023-05-25T18:09:12.558Z,51.13
2023-05-25T18:11:41.288Z,51.01
2023-05-25T18:14:09.419Z,51.15
2023-05-25T18:16:39.877Z,51.20
2023-05-25T18:19:09.673Z,51.29
2023-05-25T18:21:39.614Z,51.17
2023-05-25T18:24:09.060Z,51.50
2023-05-25T18:26:37.389Z,51.57
2023-05-25T18:29:05.511Z,51.53
2023-05-25T18:31:33.491Z,51.62
2023-05-25T18:34:02.885Z,51.77
2023-05-25T18:36:31.485Z,51.63
2023-05-25T18:38:59.519Z,51.76
2023-05-25T18:41:28.740Z,52.01
2023-05-25T18:43:56.642Z,51.97
2023-05-25T18:46:26.332Z,51.99
2023-05-25T18:48:56.436Z,52.21
2023-05-25T18:51:26.001Z,52.30
2023-05-25T18:53:55.126Z,52.24
2023-05-25T18:56:23.101Z,52.23
2023-05-25T18:58:54.948Z,52.42
2023-05-25T19:01:26.151Z,52.40
2023-05-25T19:03:57.506Z,52.51
2023-05-25T19:06:27.803Z,52.47
2023-05-25T19:08:55.822Z,52.59
2023-05-25T19:11:23.868Z,52.66
2023-05-25T19:13:52.971Z,52.79
2023-05-25T19:16:22.368Z,52.91
2023-05-25T19:18:50.464Z,52.87
2023-05-25T19:21:18.746Z,53.08
2023-05-25T19:23:46.812Z,52.97
2023-05-25T19:26:14.866Z,53.12
2023-05-25T19:28:43.354Z,53.32
2023-05-25T19:31:11.607Z,53.33
2023-05-25T19:33:40.535Z,53.44
2023-05-25T19:36:08.904Z,53.35
2023-05-25T19:38:41.340Z,53.51
2023-05-25T19:41:11.001Z,53.48
2023-05-25T19:43:39.230Z,53.56
2023-05-25T19:46:08.271Z,53.68
2023-05-25T19:48:36.703Z,53.77
2023-05-25T19:51:04.882Z,53.80
2023-05-25T19:53:32.916Z,53.88
2023-05-25T19:56:03.348Z,53.81
2023-05-25T19:58:31.652Z,53.86
2023-05-25T20:00:59.565Z,53.93
2023-05-25T20:03:27.697Z,53.97
2023-05-25T20:05:58.064Z,54.04
2023-05-25T20:08:27.385Z,54.11
2023-05-25T20:10:55.925Z,54.13
2023-05-25T20:13:24.107Z,54.16
2023-05-25T20:15:52.861Z,54.19
2023-05-25T20:18:24.117Z,54.27
2023-05-25T20:20:53.414Z,54.30
2023-05-25T20:23:21.590Z,54.33
2023-05-25T20:25:50.330Z,54.43
2023-05-25T20:28:19.685Z,54.47
2023-05-25T20:30:49.014Z,54.51
2023-05-25T20:33:17.332Z,54.56
2023-05-25T20:35:45.814Z,54.63
2023-05-25T20:38:13.944Z,54.60
2023-05-25T20:40:41.921Z,54.63
2023-05-25T20:43:09.893Z,54.69
2023-05-25T20:45:39.488Z,54.70
2023-05-25T20:48:08.089Z,54.81
2023-05-25T20:50:36.463Z,54.89
2023-05-25T20:53:05.026Z,54.90
2023-05-25T20:55:33.923Z,54.89
2023-05-25T20:58:02.000Z,54.93
2023-05-25T21:00:31.290Z,55.06
2023-05-25T21:03:01.482Z,55.05
2023-05-25T21:05:29.876Z,55.08
2023-05-25T21:07:58.015Z,55.15
2023-05-25T21:10:28.906Z,55.22
2023-05-25T21:12:57.495Z,55.11
2023-05-25T21:15:27.320Z,55.28
2023-05-25T21:17:57.902Z,55.24
2023-05-25T21:20:28.242Z,55.30
2023-05-25T21:22:56.964Z,55.35
2023-05-25T21:25:25.420Z,55.55
2023-05-25T21:27:56.718Z,55.66
2023-05-25T21:30:25.823Z,55.74
2023-05-25T21:32:53.976Z,55.88
2023-05-25T21:35:23.845Z,55.88
2023-05-25T21:37:51.863Z,55.94
2023-05-25T21:40:22.045Z,56.04
2023-05-25T21:42:53.780Z,56.14
2023-05-25T21:45:21.818Z,56.20
2023-05-25T21:47:49.808Z,56.26
2023-05-25T21:50:17.947Z,56.46
2023-05-25T21:52:46.375Z,56.47
2023-05-25T21:55:14.583Z,56.49
2023-05-25T21:57:43.200Z,56.52
2023-05-25T22:00:12.916Z,56.63
2023-05-25T22:02:42.725Z,56.71
2023-05-25T22:05:10.747Z,56.84
2023-05-25T22:07:39.076Z,56.86
2023-05-25T22:10:07.778Z,57.00
2023-05-25T22:12:36.384Z,57.17
2023-05-25T22:15:06.056Z,57.08
2023-05-25T22:17:34.836Z,57.18
2023-05-25T22:20:08.066Z,57.31
2023-05-25T22:22:37.575Z,57.42
2023-05-25T22:25:06.260Z,57.57
2023-05-25T22:27:35.424Z,57.62
2023-05-25T22:30:03.804Z,57.82
2023-05-25T22:32:31.895Z,57.84
2023-05-25T22:34:59.887Z,57.79
2023-05-25T22:37:29.155Z,57.93
2023-05-25T22:39:58.525Z,57.89
2023-05-25T22:42:26.396Z,57.89
2023-05-25T22:44:55.842Z,58.14
2023-05-25T22:47:24.699Z,58.08
2023-05-25T22:49:53.406Z,58.14
2023-05-25T22:52:21.950Z,58.17
2023-05-25T22:54:49.978Z,58.08
2023-05-25T22:57:19.724Z,58.05
2023-05-25T22:59:48.523Z,58.04
2023-05-25T23:02:17.184Z,58.04
2023-05-25T23:04:45.854Z,58.09
2023-05-25T23:07:14.905Z,58.00
2023-05-25T23:09:43.178Z,58.09
2023-05-25T23:12:11.323Z,58.10
2023-05-25T23:14:39.320Z,58.21
2023-05-25T23:17:08.115Z,58.19
2023-05-25T23:19:44.934Z,58.19
2023-05-25T23:22:13.076Z,58.23
2023-05-25T23:24:41.622Z,58.30
2023-05-25T23:27:09.726Z,58.26
2023-05-25T23:29:41.522Z,58.32
2023-05-25T23:32:09.519Z,58.30
2023-05-25T23:34:38.453Z,58.39
2023-05-25T23:37:07.445Z,58.36
2023-05-25T23:39:35.499Z,58.38
2023-05-25T23:42:03.617Z,58.42
2023-05-25T23:44:32.077Z,58.40
2023-05-25T23:47:02.471Z,58.64
2023-05-25T23:49:31.324Z,58.48
2023-05-25T23:52:00.088Z,58.48
2023-05-25T23:54:29.239Z,58.58
2023-05-25T23:56:57.507Z,58.60
2023-05-25T23:59:26.192Z,58.52
